DAOR/CBH METAR and TAF weather

Enter ICAO airport designator
Station Type Date Time Source
DAOR METAR 2019/12/11 17:00 UTC NOAA

DAOR 111700Z 02007KT CAVOK 19/M11 Q1024


Station Type Date Time Source
DAOR Decoded METAR 2019/12/11 17:00 UTC NOAA

Bechar, Algeria (DAOR) 31-37N 002-14W 773M
Dec 11, 2019 - 12:00 PM EST / 2019.12.11 1700 UTC
Wind: from the NNE (020 degrees) at 8 MPH (7 KT):0
Visibility: greater than 7 mile(s):0
Temperature: 66 F (19 C)
Dew Point: 12 F (-11 C)
Relative Humidity: 12%
Pressure (altimeter): 30.24 in. Hg (1024 hPa)
ob: DAOR 111700Z 02007KT CAVOK 19/M11 Q1024
cycle: 17

Station Type Date Time Source
DAOR TAF 2017/11/09 18:03 UTC NOAA

TAF DAOR 091700Z 0918/1009 35010KT 6000 FEW033 SCT100
TEMPO 0918/0924 3000 BLSA PROB40
TEMPO 0918/0924 35020G35KT 2000 -TSRA FEW030CB

Example: see airport list